sensor_id;sensor_type;location;lat;lon;timestamp;P1;durP1;ratioP1;P2;durP2;ratioP2
48791;SDS011;34587;48.816;9.420;2022-12-07T00:01:07;3.15;;;0.88;;
48791;SDS011;34587;48.816;9.420;2022-12-07T00:03:35;0.90;;;0.90;;
48791;SDS011;34587;48.816;9.420;2022-12-07T00:06:01;1.50;;;1.05;;
48791;SDS011;34587;48.816;9.420;2022-12-07T00:08:28;0.65;;;0.65;;
48791;SDS011;34587;48.816;9.420;2022-12-07T00:10:54;0.52;;;0.52;;
48791;SDS011;34587;48.816;9.420;2022-12-07T00:13:20;1.25;;;0.90;;
48791;SDS011;34587;48.816;9.420;2022-12-07T00:15:45;1.13;;;0.75;;
48791;SDS011;34587;48.816;9.420;2022-12-07T00:18:10;1.27;;;1.20;;
48791;SDS011;34587;48.816;9.420;2022-12-07T00:20:36;0.68;;;0.68;;
48791;SDS011;34587;48.816;9.420;2022-12-07T00:23:01;0.70;;;0.70;;
48791;SDS011;34587;48.816;9.420;2022-12-07T00:25:27;1.08;;;1.08;;
48791;SDS011;34587;48.816;9.420;2022-12-07T00:27:52;1.30;;;1.20;;
48791;SDS011;34587;48.816;9.420;2022-12-07T00:30:20;0.73;;;0.73;;
48791;SDS011;34587;48.816;9.420;2022-12-07T00:32:46;1.40;;;1.27;;
48791;SDS011;34587;48.816;9.420;2022-12-07T00:35:11;1.73;;;0.95;;
48791;SDS011;34587;48.816;9.420;2022-12-07T00:37:36;1.20;;;1.10;;
48791;SDS011;34587;48.816;9.420;2022-12-07T00:40:01;1.38;;;0.73;;
48791;SDS011;34587;48.816;9.420;2022-12-07T00:42:27;0.60;;;0.60;;
48791;SDS011;34587;48.816;9.420;2022-12-07T00:44:52;0.82;;;0.82;;
48791;SDS011;34587;48.816;9.420;2022-12-07T00:47:18;1.30;;;1.20;;
48791;SDS011;34587;48.816;9.420;2022-12-07T00:49:43;0.80;;;0.80;;
48791;SDS011;34587;48.816;9.420;2022-12-07T00:52:08;0.65;;;0.65;;
48791;SDS011;34587;48.816;9.420;2022-12-07T00:54:33;0.90;;;0.90;;
48791;SDS011;34587;48.816;9.420;2022-12-07T00:56:59;0.50;;;0.50;;
48791;SDS011;34587;48.816;9.420;2022-12-07T00:59:24;1.00;;;1.00;;
48791;SDS011;34587;48.816;9.420;2022-12-07T05:16:54;1.27;;;1.17;;
48791;SDS011;34587;48.816;9.420;2022-12-07T05:19:20;2.88;;;1.30;;
48791;SDS011;34587;48.816;9.420;2022-12-07T05:21:45;0.65;;;0.57;;
48791;SDS011;34587;48.816;9.420;2022-12-07T05:24:11;1.23;;;1.15;;
48791;SDS011;34587;48.816;9.420;2022-12-07T05:26:38;0.50;;;0.50;;
48791;SDS011;34587;48.816;9.420;2022-12-07T05:29:03;0.88;;;0.88;;
48791;SDS011;34587;48.816;9.420;2022-12-07T05:31:29;1.05;;;1.05;;
48791;SDS011;34587;48.816;9.420;2022-12-07T05:33:55;1.60;;;1.50;;
48791;SDS011;34587;48.816;9.420;2022-12-07T05:36:20;0.70;;;0.70;;
48791;SDS011;34587;48.816;9.420;2022-12-07T05:38:46;1.98;;;1.38;;
48791;SDS011;34587;48.816;9.420;2022-12-07T05:41:13;1.15;;;1.15;;
48791;SDS011;34587;48.816;9.420;2022-12-07T05:43:59;0.70;;;0.70;;
48791;SDS011;34587;48.816;9.420;2022-12-07T05:46:24;1.55;;;1.10;;
48791;SDS011;34587;48.816;9.420;2022-12-07T05:48:50;0.68;;;0.68;;
48791;SDS011;34587;48.816;9.420;2022-12-07T05:51:15;0.95;;;0.95;;
48791;SDS011;34587;48.816;9.420;2022-12-07T05:53:41;1.70;;;1.60;;
48791;SDS011;34587;48.816;9.420;2022-12-07T05:56:06;2.95;;;1.25;;
48791;SDS011;34587;48.816;9.420;2022-12-07T05:58:31;0.90;;;0.90;;
48791;SDS011;34587;48.816;9.420;2022-12-07T06:01:15;1.27;;;1.27;;
48791;SDS011;34587;48.816;9.420;2022-12-07T06:03:41;1.35;;;1.27;;
48791;SDS011;34587;48.816;9.420;2022-12-07T06:06:06;2.08;;;1.35;;
48791;SDS011;34587;48.816;9.420;2022-12-07T06:08:31;1.30;;;1.20;;
48791;SDS011;34587;48.816;9.420;2022-12-07T06:10:56;1.05;;;1.05;;
48791;SDS011;34587;48.816;9.420;2022-12-07T06:13:40;1.52;;;1.42;;
48791;SDS011;34587;48.816;9.420;2022-12-07T06:16:06;1.00;;;0.98;;
48791;SDS011;34587;48.816;9.420;2022-12-07T06:18:32;0.77;;;0.77;;
48791;SDS011;34587;48.816;9.420;2022-12-07T06:20:57;1.00;;;1.00;;
48791;SDS011;34587;48.816;9.420;2022-12-07T06:23:23;1.10;;;1.00;;
48791;SDS011;34587;48.816;9.420;2022-12-07T06:25:48;0.98;;;0.98;;
48791;SDS011;34587;48.816;9.420;2022-12-07T06:28:13;1.65;;;1.55;;
48791;SDS011;34587;48.816;9.420;2022-12-07T06:30:38;2.60;;;1.63;;
48791;SDS011;34587;48.816;9.420;2022-12-07T06:33:04;0.90;;;0.90;;
48791;SDS011;34587;48.816;9.420;2022-12-07T06:35:29;1.30;;;1.30;;
48791;SDS011;34587;48.816;9.420;2022-12-07T06:37:56;1.00;;;1.00;;
48791;SDS011;34587;48.816;9.420;2022-12-07T06:40:22;0.85;;;0.85;;
48791;SDS011;34587;48.816;9.420;2022-12-07T06:42:47;1.48;;;1.35;;
48791;SDS011;34587;48.816;9.420;2022-12-07T06:45:12;2.72;;;2.35;;
48791;SDS011;34587;48.816;9.420;2022-12-07T06:47:38;1.17;;;0.90;;
48791;SDS011;34587;48.816;9.420;2022-12-07T06:50:03;0.80;;;0.80;;
48791;SDS011;34587;48.816;9.420;2022-12-07T06:52:29;2.38;;;1.08;;
48791;SDS011;34587;48.816;9.420;2022-12-07T06:54:55;5.85;;;1.50;;
48791;SDS011;34587;48.816;9.420;2022-12-07T06:57:20;1.80;;;1.58;;
48791;SDS011;34587;48.816;9.420;2022-12-07T06:59:45;0.95;;;0.90;;
48791;SDS011;34587;48.816;9.420;2022-12-07T07:02:11;1.38;;;1.20;;
48791;SDS011;34587;48.816;9.420;2022-12-07T07:04:36;1.30;;;1.20;;
48791;SDS011;34587;48.816;9.420;2022-12-07T07:07:01;1.20;;;1.00;;
48791;SDS011;34587;48.816;9.420;2022-12-07T07:09:26;1.05;;;0.93;;
48791;SDS011;34587;48.816;9.420;2022-12-07T07:11:52;1.75;;;1.52;;
48791;SDS011;34587;48.816;9.420;2022-12-07T07:14:17;1.23;;;0.95;;
48791;SDS011;34587;48.816;9.420;2022-12-07T07:16:44;1.13;;;1.13;;
48791;SDS011;34587;48.816;9.420;2022-12-07T07:19:09;4.53;;;0.85;;
48791;SDS011;34587;48.816;9.420;2022-12-07T07:21:36;0.77;;;0.77;;
48791;SDS011;34587;48.816;9.420;2022-12-07T07:24:01;1.30;;;1.23;;
48791;SDS011;34587;48.816;9.420;2022-12-07T07:26:27;5.05;;;1.20;;
48791;SDS011;34587;48.816;9.420;2022-12-07T07:28:52;1.10;;;1.10;;
48791;SDS011;34587;48.816;9.420;2022-12-07T07:31:17;0.77;;;0.77;;
48791;SDS011;34587;48.816;9.420;2022-12-07T07:33:44;1.65;;;1.52;;
48791;SDS011;34587;48.816;9.420;2022-12-07T07:36:11;1.20;;;1.10;;
48791;SDS011;34587;48.816;9.420;2022-12-07T07:38:36;1.48;;;1.38;;
48791;SDS011;34587;48.816;9.420;2022-12-07T07:41:01;1.02;;;0.90;;
48791;SDS011;34587;48.816;9.420;2022-12-07T07:43:27;0.98;;;0.93;;
48791;SDS011;34587;48.816;9.420;2022-12-07T07:45:52;1.38;;;1.30;;
48791;SDS011;34587;48.816;9.420;2022-12-07T07:48:18;1.13;;;1.10;;
48791;SDS011;34587;48.816;9.420;2022-12-07T07:50:43;1.38;;;1.35;;
48791;SDS011;34587;48.816;9.420;2022-12-07T07:53:08;0.77;;;0.77;;
48791;SDS011;34587;48.816;9.420;2022-12-07T07:55:34;1.60;;;1.50;;
48791;SDS011;34587;48.816;9.420;2022-12-07T07:57:59;2.05;;;1.05;;
48791;SDS011;34587;48.816;9.420;2022-12-07T08:00:24;1.00;;;0.90;;
48791;SDS011;34587;48.816;9.420;2022-12-07T08:02:50;1.30;;;1.05;;
48791;SDS011;34587;48.816;9.420;2022-12-07T08:05:15;2.17;;;0.80;;
48791;SDS011;34587;48.816;9.420;2022-12-07T08:07:41;1.73;;;1.55;;
48791;SDS011;34587;48.816;9.420;2022-12-07T08:10:07;1.95;;;1.20;;
48791;SDS011;34587;48.816;9.420;2022-12-07T08:12:38;2.25;;;1.45;;
48791;SDS011;34587;48.816;9.420;2022-12-07T08:15:25;0.70;;;0.70;;
48791;SDS011;34587;48.816;9.420;2022-12-07T08:17:52;2.40;;;1.20;;
48791;SDS011;34587;48.816;9.420;2022-12-07T08:20:17;2.25;;;1.48;;
48791;SDS011;34587;48.816;9.420;2022-12-07T08:22:42;1.85;;;1.50;;
48791;SDS011;34587;48.816;9.420;2022-12-07T08:25:07;1.17;;;1.05;;
48791;SDS011;34587;48.816;9.420;2022-12-07T08:27:33;1.92;;;1.73;;
48791;SDS011;34587;48.816;9.420;2022-12-07T08:29:58;1.45;;;1.27;;
48791;SDS011;34587;48.816;9.420;2022-12-07T08:32:23;1.85;;;1.33;;
48791;SDS011;34587;48.816;9.420;2022-12-07T08:34:49;2.00;;;1.15;;
48791;SDS011;34587;48.816;9.420;2022-12-07T08:37:14;1.85;;;1.65;;
48791;SDS011;34587;48.816;9.420;2022-12-07T08:39:40;1.52;;;1.42;;
48791;SDS011;34587;48.816;9.420;2022-12-07T08:42:05;1.05;;;1.05;;
48791;SDS011;34587;48.816;9.420;2022-12-07T08:44:30;2.70;;;1.67;;
48791;SDS011;34587;48.816;9.420;2022-12-07T08:46:56;3.33;;;2.50;;
48791;SDS011;34587;48.816;9.420;2022-12-07T08:49:27;5.38;;;1.48;;
48791;SDS011;34587;48.816;9.420;2022-12-07T08:51:58;2.33;;;1.40;;
48791;SDS011;34587;48.816;9.420;2022-12-07T08:54:23;2.40;;;0.90;;
48791;SDS011;34587;48.816;9.420;2022-12-07T08:56:49;1.33;;;1.33;;
48791;SDS011;34587;48.816;9.420;2022-12-07T08:59:16;3.92;;;2.25;;
48791;SDS011;34587;48.816;9.420;2022-12-07T09:01:44;1.20;;;1.10;;
48791;SDS011;34587;48.816;9.420;2022-12-07T09:04:09;0.90;;;0.90;;
48791;SDS011;34587;48.816;9.420;2022-12-07T09:06:34;1.20;;;1.10;;
48791;SDS011;34587;48.816;9.420;2022-12-07T09:09:00;1.42;;;1.27;;
48791;SDS011;34587;48.816;9.420;2022-12-07T09:11:26;0.80;;;0.80;;
48791;SDS011;34587;48.816;9.420;2022-12-07T09:13:52;2.17;;;1.58;;
48791;SDS011;34587;48.816;9.420;2022-12-07T09:16:17;1.40;;;1.30;;
48791;SDS011;34587;48.816;9.420;2022-12-07T09:18:42;1.63;;;1.52;;
48791;SDS011;34587;48.816;9.420;2022-12-07T09:21:08;1.98;;;1.88;;
48791;SDS011;34587;48.816;9.420;2022-12-07T09:23:34;1.95;;;1.67;;
48791;SDS011;34587;48.816;9.420;2022-12-07T09:26:02;1.25;;;1.25;;
48791;SDS011;34587;48.816;9.420;2022-12-07T09:28:32;1.35;;;1.25;;
48791;SDS011;34587;48.816;9.420;2022-12-07T09:30:58;1.00;;;0.93;;
48791;SDS011;34587;48.816;9.420;2022-12-07T09:33:24;2.13;;;1.73;;
48791;SDS011;34587;48.816;9.420;2022-12-07T09:35:49;3.83;;;1.80;;
48791;SDS011;34587;48.816;9.420;2022-12-07T09:38:15;1.92;;;1.75;;
48791;SDS011;34587;48.816;9.420;2022-12-07T09:40:42;1.52;;;1.45;;
48791;SDS011;34587;48.816;9.420;2022-12-07T09:43:12;1.73;;;0.77;;
48791;SDS011;34587;48.816;9.420;2022-12-07T09:45:39;1.75;;;1.08;;
48791;SDS011;34587;48.816;9.420;2022-12-07T09:48:08;2.42;;;2.15;;
48791;SDS011;34587;48.816;9.420;2022-12-07T09:50:43;5.35;;;2.38;;
48791;SDS011;34587;48.816;9.420;2022-12-07T09:53:09;1.20;;;1.20;;
48791;SDS011;34587;48.816;9.420;2022-12-07T09:55:40;1.58;;;1.48;;
48791;SDS011;34587;48.816;9.420;2022-12-07T09:58:10;2.38;;;1.17;;
48791;SDS011;34587;48.816;9.420;2022-12-07T10:00:44;2.70;;;1.52;;
48791;SDS011;34587;48.816;9.420;2022-12-07T10:03:10;1.20;;;1.20;;
48791;SDS011;34587;48.816;9.420;2022-12-07T10:05:38;1.92;;;1.20;;
48791;SDS011;34587;48.816;9.420;2022-12-07T10:08:12;1.77;;;1.48;;
48791;SDS011;34587;48.816;9.420;2022-12-07T10:10:38;1.83;;;1.73;;
48791;SDS011;34587;48.816;9.420;2022-12-07T10:13:06;2.20;;;1.40;;
48791;SDS011;34587;48.816;9.420;2022-12-07T10:15:43;1.30;;;1.27;;
48791;SDS011;34587;48.816;9.420;2022-12-07T10:23:29;1.52;;;1.42;;
48791;SDS011;34587;48.816;9.420;2022-12-07T10:25:55;1.10;;;1.02;;
48791;SDS011;34587;48.816;9.420;2022-12-07T10:28:20;0.50;;;0.50;;
48791;SDS011;34587;48.816;9.420;2022-12-07T10:30:59;2.65;;;1.50;;
48791;SDS011;34587;48.816;9.420;2022-12-07T10:35:55;1.00;;;0.90;;
48791;SDS011;34587;48.816;9.420;2022-12-07T10:38:21;0.70;;;0.70;;
48791;SDS011;34587;48.816;9.420;2022-12-07T10:40:46;1.27;;;1.20;;
48791;SDS011;34587;48.816;9.420;2022-12-07T10:45:41;1.40;;;1.30;;
48791;SDS011;34587;48.816;9.420;2022-12-07T10:48:38;1.13;;;0.93;;
48791;SDS011;34587;48.816;9.420;2022-12-07T10:51:12;0.80;;;0.80;;
48791;SDS011;34587;48.816;9.420;2022-12-07T10:54:15;0.95;;;0.95;;
48791;SDS011;34587;48.816;9.420;2022-12-07T10:56:57;0.30;;;0.30;;
48791;SDS011;34587;48.816;9.420;2022-12-07T11:07:49;0.90;;;0.90;;
48791;SDS011;34587;48.816;9.420;2022-12-07T11:10:40;0.93;;;0.93;;
48791;SDS011;34587;48.816;9.420;2022-12-07T11:21:20;0.88;;;0.68;;
48791;SDS011;34587;48.816;9.420;2022-12-07T11:31:50;1.38;;;1.15;;
48791;SDS011;34587;48.816;9.420;2022-12-07T11:34:24;0.90;;;0.90;;
48791;SDS011;34587;48.816;9.420;2022-12-07T11:37:20;1.45;;;0.90;;
48791;SDS011;34587;48.816;9.420;2022-12-07T11:39:50;0.90;;;0.80;;
48791;SDS011;34587;48.816;9.420;2022-12-07T11:42:26;1.55;;;1.45;;
48791;SDS011;34587;48.816;9.420;2022-12-07T11:45:00;0.70;;;0.70;;
48791;SDS011;34587;48.816;9.420;2022-12-07T11:50:16;0.70;;;0.70;;
48791;SDS011;34587;48.816;9.420;2022-12-07T11:53:09;0.90;;;0.90;;
48791;SDS011;34587;48.816;9.420;2022-12-07T11:55:56;1.00;;;1.00;;
48791;SDS011;34587;48.816;9.420;2022-12-07T12:01:19;0.95;;;0.93;;
48791;SDS011;34587;48.816;9.420;2022-12-07T12:03:55;0.80;;;0.80;;
48791;SDS011;34587;48.816;9.420;2022-12-07T12:06:26;0.50;;;0.50;;
48791;SDS011;34587;48.816;9.420;2022-12-07T12:11:37;0.73;;;0.55;;
48791;SDS011;34587;48.816;9.420;2022-12-07T12:20:00;1.05;;;0.88;;
48791;SDS011;34587;48.816;9.420;2022-12-07T12:22:40;1.05;;;1.00;;
48791;SDS011;34587;48.816;9.420;2022-12-07T12:27:56;0.40;;;0.40;;
48791;SDS011;34587;48.816;9.420;2022-12-07T12:30:25;0.80;;;0.80;;
48791;SDS011;34587;48.816;9.420;2022-12-07T12:33:00;2.83;;;1.05;;
48791;SDS011;34587;48.816;9.420;2022-12-07T12:35:29;0.77;;;0.77;;
48791;SDS011;34587;48.816;9.420;2022-12-07T12:40:53;0.77;;;0.77;;
48791;SDS011;34587;48.816;9.420;2022-12-07T12:49:14;0.77;;;0.73;;
48791;SDS011;34587;48.816;9.420;2022-12-07T12:52:01;0.88;;;0.88;;
48791;SDS011;34587;48.816;9.420;2022-12-07T12:57:32;0.80;;;0.80;;
48791;SDS011;34587;48.816;9.420;2022-12-07T12:59:58;0.63;;;0.63;;
48791;SDS011;34587;48.816;9.420;2022-12-07T13:02:37;3.80;;;0.70;;
48791;SDS011;34587;48.816;9.420;2022-12-07T13:10:22;1.15;;;0.88;;
48791;SDS011;34587;48.816;9.420;2022-12-07T13:18:34;0.80;;;0.80;;
48791;SDS011;34587;48.816;9.420;2022-12-07T13:21:02;0.77;;;0.77;;
48791;SDS011;34587;48.816;9.420;2022-12-07T13:28:48;1.10;;;0.80;;
48791;SDS011;34587;48.816;9.420;2022-12-07T13:34:04;0.47;;;0.47;;
48791;SDS011;34587;48.816;9.420;2022-12-07T13:36:50;1.92;;;0.80;;
48791;SDS011;34587;48.816;9.420;2022-12-07T13:39:18;0.82;;;0.75;;
48791;SDS011;34587;48.816;9.420;2022-12-07T13:41:46;1.33;;;1.10;;
48791;SDS011;34587;48.816;9.420;2022-12-07T13:44:16;0.90;;;0.90;;
48791;SDS011;34587;48.816;9.420;2022-12-07T13:46:48;2.17;;;1.05;;
48791;SDS011;34587;48.816;9.420;2022-12-07T13:49:23;1.23;;;0.80;;
48791;SDS011;34587;48.816;9.420;2022-12-07T13:51:50;0.60;;;0.60;;
48791;SDS011;34587;48.816;9.420;2022-12-07T13:54:16;1.60;;;1.05;;
48791;SDS011;34587;48.816;9.420;2022-12-07T13:56:42;1.45;;;0.60;;
48791;SDS011;34587;48.816;9.420;2022-12-07T13:59:16;0.70;;;0.70;;
48791;SDS011;34587;48.816;9.420;2022-12-07T14:01:44;0.63;;;0.63;;
48791;SDS011;34587;48.816;9.420;2022-12-07T14:04:16;1.27;;;1.17;;
48791;SDS011;34587;48.816;9.420;2022-12-07T14:06:51;0.73;;;0.73;;
48791;SDS011;34587;48.816;9.420;2022-12-07T14:09:18;2.35;;;1.52;;
48791;SDS011;34587;48.816;9.420;2022-12-07T14:11:47;2.80;;;0.98;;
48791;SDS011;34587;48.816;9.420;2022-12-07T14:14:15;0.93;;;0.88;;
48791;SDS011;34587;48.816;9.420;2022-12-07T14:16:54;1.00;;;1.00;;
48791;SDS011;34587;48.816;9.420;2022-12-07T14:19:53;1.02;;;0.98;;
48791;SDS011;34587;48.816;9.420;2022-12-07T14:22:41;0.73;;;0.73;;
48791;SDS011;34587;48.816;9.420;2022-12-07T14:25:14;2.63;;;1.27;;
48791;SDS011;34587;48.816;9.420;2022-12-07T14:30:25;0.65;;;0.65;;
48791;SDS011;34587;48.816;9.420;2022-12-07T14:32:54;0.50;;;0.50;;
48791;SDS011;34587;48.816;9.420;2022-12-07T14:35:22;5.60;;;1.17;;
48791;SDS011;34587;48.816;9.420;2022-12-07T14:37:48;0.77;;;0.77;;
48791;SDS011;34587;48.816;9.420;2022-12-07T14:40:15;4.30;;;1.23;;
48791;SDS011;34587;48.816;9.420;2022-12-07T14:42:49;0.57;;;0.57;;
48791;SDS011;34587;48.816;9.420;2022-12-07T14:45:19;0.77;;;0.75;;
48791;SDS011;34587;48.816;9.420;2022-12-07T14:47:46;1.30;;;0.95;;
48791;SDS011;34587;48.816;9.420;2022-12-07T14:50:13;0.43;;;0.43;;
48791;SDS011;34587;48.816;9.420;2022-12-07T14:52:40;1.48;;;1.38;;
48791;SDS011;34587;48.816;9.420;2022-12-07T14:55:15;1.67;;;1.58;;
48791;SDS011;34587;48.816;9.420;2022-12-07T14:57:48;1.00;;;0.95;;
48791;SDS011;34587;48.816;9.420;2022-12-07T15:00:14;0.60;;;0.60;;
48791;SDS011;34587;48.816;9.420;2022-12-07T15:02:40;1.33;;;0.95;;
48791;SDS011;34587;48.816;9.420;2022-12-07T15:05:05;1.08;;;0.95;;
48791;SDS011;34587;48.816;9.420;2022-12-07T15:07:31;0.70;;;0.70;;
48791;SDS011;34587;48.816;9.420;2022-12-07T15:09:56;1.98;;;1.33;;
48791;SDS011;34587;48.816;9.420;2022-12-07T15:12:21;1.20;;;1.20;;
48791;SDS011;34587;48.816;9.420;2022-12-07T15:14:48;1.85;;;0.70;;
48791;SDS011;34587;48.816;9.420;2022-12-07T15:17:13;0.60;;;0.60;;
48791;SDS011;34587;48.816;9.420;2022-12-07T15:19:39;1.27;;;1.25;;
48791;SDS011;34587;48.816;9.420;2022-12-07T15:22:04;1.13;;;1.05;;
48791;SDS011;34587;48.816;9.420;2022-12-07T15:24:29;1.58;;;1.30;;
48791;SDS011;34587;48.816;9.420;2022-12-07T15:26:54;1.00;;;0.85;;
48791;SDS011;34587;48.816;9.420;2022-12-07T15:29:20;1.77;;;1.05;;
48791;SDS011;34587;48.816;9.420;2022-12-07T15:31:47;0.73;;;0.73;;
48791;SDS011;34587;48.816;9.420;2022-12-07T15:34:13;0.77;;;0.77;;
48791;SDS011;34587;48.816;9.420;2022-12-07T15:36:38;1.13;;;1.10;;
48791;SDS011;34587;48.816;9.420;2022-12-07T15:39:04;0.77;;;0.77;;
48791;SDS011;34587;48.816;9.420;2022-12-07T15:41:29;0.88;;;0.73;;
48791;SDS011;34587;48.816;9.420;2022-12-07T15:43:55;3.58;;;1.30;;
48791;SDS011;34587;48.816;9.420;2022-12-07T15:46:39;0.85;;;0.85;;
48791;SDS011;34587;48.816;9.420;2022-12-07T15:49:07;1.95;;;1.67;;
48791;SDS011;34587;48.816;9.420;2022-12-07T15:51:36;2.45;;;1.08;;
48791;SDS011;34587;48.816;9.420;2022-12-07T15:54:01;2.25;;;0.65;;
48791;SDS011;34587;48.816;9.420;2022-12-07T15:56:27;1.02;;;0.93;;
48791;SDS011;34587;48.816;9.420;2022-12-07T15:58:52;2.53;;;1.13;;
48791;SDS011;34587;48.816;9.420;2022-12-07T16:01:18;0.90;;;0.90;;
48791;SDS011;34587;48.816;9.420;2022-12-07T16:03:45;0.70;;;0.70;;
48791;SDS011;34587;48.816;9.420;2022-12-07T16:06:11;2.17;;;1.75;;
48791;SDS011;34587;48.816;9.420;2022-12-07T16:08:36;0.95;;;0.95;;
48791;SDS011;34587;48.816;9.420;2022-12-07T16:11:06;1.58;;;1.48;;
48791;SDS011;34587;48.816;9.420;2022-12-07T16:13:32;2.28;;;1.40;;
48791;SDS011;34587;48.816;9.420;2022-12-07T16:15:58;0.95;;;0.95;;
48791;SDS011;34587;48.816;9.420;2022-12-07T16:18:26;1.30;;;1.23;;
48791;SDS011;34587;48.816;9.420;2022-12-07T16:20:51;3.33;;;1.38;;
48791;SDS011;34587;48.816;9.420;2022-12-07T16:23:17;1.42;;;1.33;;
48791;SDS011;34587;48.816;9.420;2022-12-07T16:25:42;1.15;;;1.05;;
48791;SDS011;34587;48.816;9.420;2022-12-07T16:28:07;0.85;;;0.85;;
48791;SDS011;34587;48.816;9.420;2022-12-07T16:30:33;1.02;;;0.93;;
48791;SDS011;34587;48.816;9.420;2022-12-07T16:32:59;1.55;;;1.45;;
48791;SDS011;34587;48.816;9.420;2022-12-07T16:35:24;1.60;;;1.38;;
48791;SDS011;34587;48.816;9.420;2022-12-07T16:37:49;3.03;;;1.85;;
48791;SDS011;34587;48.816;9.420;2022-12-07T16:40:15;1.27;;;1.13;;
48791;SDS011;34587;48.816;9.420;2022-12-07T16:42:40;1.45;;;1.00;;
48791;SDS011;34587;48.816;9.420;2022-12-07T16:45:05;1.65;;;1.55;;
48791;SDS011;34587;48.816;9.420;2022-12-07T16:47:31;0.98;;;0.98;;
48791;SDS011;34587;48.816;9.420;2022-12-07T16:49:56;1.73;;;1.63;;
48791;SDS011;34587;48.816;9.420;2022-12-07T16:52:21;1.23;;;1.13;;
48791;SDS011;34587;48.816;9.420;2022-12-07T16:54:47;2.78;;;1.42;;
48791;SDS011;34587;48.816;9.420;2022-12-07T16:57:14;0.70;;;0.70;;
48791;SDS011;34587;48.816;9.420;2022-12-07T16:59:39;1.05;;;1.05;;
48791;SDS011;34587;48.816;9.420;2022-12-07T17:02:05;3.90;;;2.22;;
48791;SDS011;34587;48.816;9.420;2022-12-07T17:04:31;1.30;;;1.30;;
48791;SDS011;34587;48.816;9.420;2022-12-07T17:06:58;1.23;;;1.23;;
48791;SDS011;34587;48.816;9.420;2022-12-07T17:09:23;4.80;;;1.75;;
48791;SDS011;34587;48.816;9.420;2022-12-07T17:11:49;1.63;;;1.10;;
48791;SDS011;34587;48.816;9.420;2022-12-07T17:14:14;1.27;;;1.17;;
48791;SDS011;34587;48.816;9.420;2022-12-07T17:16:58;1.60;;;1.50;;
48791;SDS011;34587;48.816;9.420;2022-12-07T17:19:23;1.90;;;1.13;;
48791;SDS011;34587;48.816;9.420;2022-12-07T17:21:48;1.88;;;1.77;;
48791;SDS011;34587;48.816;9.420;2022-12-07T17:24:15;1.00;;;0.82;;
48791;SDS011;34587;48.816;9.420;2022-12-07T17:26:42;1.55;;;0.95;;
48791;SDS011;34587;48.816;9.420;2022-12-07T17:29:10;0.80;;;0.80;;
48791;SDS011;34587;48.816;9.420;2022-12-07T17:31:37;2.20;;;1.67;;
48791;SDS011;34587;48.816;9.420;2022-12-07T17:34:03;1.17;;;0.95;;
48791;SDS011;34587;48.816;9.420;2022-12-07T17:36:29;1.10;;;1.10;;
48791;SDS011;34587;48.816;9.420;2022-12-07T17:38:56;5.85;;;0.90;;
48791;SDS011;34587;48.816;9.420;2022-12-07T17:41:23;1.95;;;1.17;;
48791;SDS011;34587;48.816;9.420;2022-12-07T17:44:09;0.88;;;0.88;;
48791;SDS011;34587;48.816;9.420;2022-12-07T17:46:36;0.68;;;0.68;;
48791;SDS011;34587;48.816;9.420;2022-12-07T17:49:02;1.52;;;1.10;;
48791;SDS011;34587;48.816;9.420;2022-12-07T17:51:28;1.73;;;1.45;;
48791;SDS011;34587;48.816;9.420;2022-12-07T17:54:12;2.75;;;1.73;;
48791;SDS011;34587;48.816;9.420;2022-12-07T17:56:37;3.90;;;2.47;;
48791;SDS011;34587;48.816;9.420;2022-12-07T17:59:03;2.33;;;1.58;;
48791;SDS011;34587;48.816;9.420;2022-12-07T18:01:28;1.80;;;1.70;;
48791;SDS011;34587;48.816;9.420;2022-12-07T18:03:54;3.72;;;2.00;;
48791;SDS011;34587;48.816;9.420;2022-12-07T18:06:19;2.80;;;1.38;;
48791;SDS011;34587;48.816;9.420;2022-12-07T18:08:44;1.67;;;1.58;;
48791;SDS011;34587;48.816;9.420;2022-12-07T18:11:09;1.55;;;1.45;;
48791;SDS011;34587;48.816;9.420;2022-12-07T18:13:35;1.00;;;1.00;;
48791;SDS011;34587;48.816;9.420;2022-12-07T18:16:20;1.23;;;1.13;;
48791;SDS011;34587;48.816;9.420;2022-12-07T18:18:47;1.88;;;1.30;;
48791;SDS011;34587;48.816;9.420;2022-12-07T18:21:14;1.20;;;1.20;;
48791;SDS011;34587;48.816;9.420;2022-12-07T18:23:42;1.33;;;1.30;;
48791;SDS011;34587;48.816;9.420;2022-12-07T18:26:08;2.78;;;1.45;;
48791;SDS011;34587;48.816;9.420;2022-12-07T18:28:34;8.90;;;2.05;;
48791;SDS011;34587;48.816;9.420;2022-12-07T18:30:59;2.78;;;2.05;;
48791;SDS011;34587;48.816;9.420;2022-12-07T18:33:25;1.55;;;1.45;;
48791;SDS011;34587;48.816;9.420;2022-12-07T18:35:50;1.80;;;1.52;;
48791;SDS011;34587;48.816;9.420;2022-12-07T18:38:16;1.30;;;1.23;;
48791;SDS011;34587;48.816;9.420;2022-12-07T18:40:43;7.57;;;2.17;;
48791;SDS011;34587;48.816;9.420;2022-12-07T18:43:10;1.50;;;1.30;;
48791;SDS011;34587;48.816;9.420;2022-12-07T18:45:40;3.78;;;1.60;;
48791;SDS011;34587;48.816;9.420;2022-12-07T18:48:07;2.25;;;2.00;;
48791;SDS011;34587;48.816;9.420;2022-12-07T18:50:33;2.10;;;1.98;;
48791;SDS011;34587;48.816;9.420;2022-12-07T18:53:00;1.75;;;1.52;;
48791;SDS011;34587;48.816;9.420;2022-12-07T18:55:27;1.38;;;1.17;;
48791;SDS011;34587;48.816;9.420;2022-12-07T18:57:54;218.25;;;77.00;;
48791;SDS011;34587;48.816;9.420;2022-12-07T19:00:20;164.90;;;70.38;;
48791;SDS011;34587;48.816;9.420;2022-12-07T19:02:48;123.10;;;49.47;;
48791;SDS011;34587;48.816;9.420;2022-12-07T19:05:15;101.47;;;42.28;;
48791;SDS011;34587;48.816;9.420;2022-12-07T19:07:41;120.90;;;41.33;;
48791;SDS011;34587;48.816;9.420;2022-12-07T19:10:06;105.35;;;45.38;;
48791;SDS011;34587;48.816;9.420;2022-12-07T19:12:32;92.75;;;33.42;;
48791;SDS011;34587;48.816;9.420;2022-12-07T19:14:58;77.22;;;30.17;;
48791;SDS011;34587;48.816;9.420;2022-12-07T19:17:24;76.22;;;28.00;;
48791;SDS011;34587;48.816;9.420;2022-12-07T19:19:49;55.97;;;22.50;;
48791;SDS011;34587;48.816;9.420;2022-12-07T19:22:18;73.38;;;24.83;;
48791;SDS011;34587;48.816;9.420;2022-12-07T19:24:46;58.40;;;22.65;;
48791;SDS011;34587;48.816;9.420;2022-12-07T19:27:13;57.88;;;18.98;;
48791;SDS011;34587;48.816;9.420;2022-12-07T19:29:39;44.45;;;17.20;;
48791;SDS011;34587;48.816;9.420;2022-12-07T19:32:06;33.25;;;16.50;;
48791;SDS011;34587;48.816;9.420;2022-12-07T19:34:36;52.92;;;14.02;;
48791;SDS011;34587;48.816;9.420;2022-12-07T19:37:03;35.78;;;16.75;;
48791;SDS011;34587;48.816;9.420;2022-12-07T19:39:28;34.90;;;13.65;;
48791;SDS011;34587;48.816;9.420;2022-12-07T19:41:54;25.80;;;9.77;;
48791;SDS011;34587;48.816;9.420;2022-12-07T19:44:21;18.65;;;9.35;;
48791;SDS011;34587;48.816;9.420;2022-12-07T19:46:50;23.27;;;8.87;;
48791;SDS011;34587;48.816;9.420;2022-12-07T19:49:17;15.52;;;6.85;;
48791;SDS011;34587;48.816;9.420;2022-12-07T19:51:44;14.40;;;8.00;;
48791;SDS011;34587;48.816;9.420;2022-12-07T19:54:12;18.65;;;8.55;;
48791;SDS011;34587;48.816;9.420;2022-12-07T19:56:39;23.38;;;5.93;;
48791;SDS011;34587;48.816;9.420;2022-12-07T19:59:05;10.93;;;6.30;;
48791;SDS011;34587;48.816;9.420;2022-12-07T20:01:31;15.30;;;5.20;;
48791;SDS011;34587;48.816;9.420;2022-12-07T20:03:57;8.15;;;5.38;;
48791;SDS011;34587;48.816;9.420;2022-12-07T20:06:23;10.35;;;4.20;;
48791;SDS011;34587;48.816;9.420;2022-12-07T20:08:49;8.27;;;3.92;;
48791;SDS011;34587;48.816;9.420;2022-12-07T20:11:15;3.85;;;2.70;;
48791;SDS011;34587;48.816;9.420;2022-12-07T20:14:00;5.05;;;1.75;;
48791;SDS011;34587;48.816;9.420;2022-12-07T20:16:26;4.10;;;2.38;;
48791;SDS011;34587;48.816;9.420;2022-12-07T20:18:51;7.25;;;4.30;;
48791;SDS011;34587;48.816;9.420;2022-12-07T20:21:17;5.35;;;2.40;;
48791;SDS011;34587;48.816;9.420;2022-12-07T20:23:42;2.88;;;2.22;;
48791;SDS011;34587;48.816;9.420;2022-12-07T20:26:09;9.05;;;2.75;;
48791;SDS011;34587;48.816;9.420;2022-12-07T20:28:36;9.65;;;2.05;;
48791;SDS011;34587;48.816;9.420;2022-12-07T20:31:02;5.57;;;2.78;;